sensor_id;sensor_type;location;lat;lon;timestamp;pressure;altitude;pressure_sealevel;temperature;humidity
41140;BME280;26881;48.784;9.192;2023-04-29T16:58:35;98724.91;;;13.90;76.90
41140;BME280;26881;48.784;9.192;2023-04-29T17:03:56;98721.78;;;13.85;77.15
41140;BME280;26881;48.784;9.192;2023-04-29T17:09:18;98726.91;;;13.86;78.93
41140;BME280;26881;48.784;9.192;2023-04-29T17:14:40;98724.19;;;13.88;75.60
41140;BME280;26881;48.784;9.192;2023-04-29T17:20:02;98727.03;;;13.85;79.03
41140;BME280;26881;48.784;9.192;2023-04-29T17:25:24;98730.91;;;13.79;74.20
41140;BME280;26881;48.784;9.192;2023-04-29T17:30:46;98719.56;;;13.79;79.76
41140;BME280;26881;48.784;9.192;2023-04-29T17:36:07;98729.66;;;13.72;80.05
41140;BME280;26881;48.784;9.192;2023-04-29T17:41:29;98724.13;;;13.64;80.48
41140;BME280;26881;48.784;9.192;2023-04-29T17:46:51;98732.31;;;13.59;81.49
41140;BME280;26881;48.784;9.192;2023-04-29T17:52:13;98732.19;;;13.61;82.34
41140;BME280;26881;48.784;9.192;2023-04-29T17:57:35;98740.94;;;13.61;76.74
41140;BME280;26881;48.784;9.192;2023-04-29T18:02:58;98735.22;;;13.67;75.42
41140;BME280;26881;48.784;9.192;2023-04-29T18:08:20;98734.38;;;13.54;80.85
41140;BME280;26881;48.784;9.192;2023-04-29T18:13:42;98742.28;;;13.54;79.11
41140;BME280;26881;48.784;9.192;2023-04-29T18:19:04;98743.63;;;13.47;78.26
41140;BME280;26881;48.784;9.192;2023-04-29T18:24:26;98747.22;;;13.46;76.71
41140;BME280;26881;48.784;9.192;2023-04-29T18:29:49;98742.94;;;13.45;78.10
41140;BME280;26881;48.784;9.192;2023-04-29T18:35:12;98739.88;;;13.38;79.91
41140;BME280;26881;48.784;9.192;2023-04-29T18:40:34;98744.25;;;13.38;81.65
41140;BME280;26881;48.784;9.192;2023-04-29T18:46:07;98751.22;;;13.39;78.50
41140;BME280;26881;48.784;9.192;2023-04-29T18:51:29;98757.53;;;13.49;76.44
41140;BME280;26881;48.784;9.192;2023-04-29T18:56:51;98761.50;;;13.42;77.65
41140;BME280;26881;48.784;9.192;2023-04-29T19:02:13;98764.41;;;13.24;79.73
41140;BME280;26881;48.784;9.192;2023-04-29T19:07:35;98773.94;;;13.13;79.93
41140;BME280;26881;48.784;9.192;2023-04-29T19:12:57;98786.88;;;13.16;79.15
41140;BME280;26881;48.784;9.192;2023-04-29T19:18:19;98784.75;;;13.08;80.13
41140;BME280;26881;48.784;9.192;2023-04-29T19:23:43;98785.97;;;13.02;79.57
41140;BME280;26881;48.784;9.192;2023-04-29T19:29:05;98795.66;;;13.02;78.89
41140;BME280;26881;48.784;9.192;2023-04-29T19:34:27;98792.88;;;12.91;80.30
41140;BME280;26881;48.784;9.192;2023-04-29T19:39:49;98806.53;;;12.96;79.56
41140;BME280;26881;48.784;9.192;2023-04-29T19:45:11;98807.81;;;12.90;80.17
41140;BME280;26881;48.784;9.192;2023-04-29T19:50:33;98809.91;;;12.98;77.94
41140;BME280;26881;48.784;9.192;2023-04-29T19:55:55;98795.22;;;12.95;81.29
41140;BME280;26881;48.784;9.192;2023-04-29T20:01:17;98800.00;;;12.89;82.83
41140;BME280;26881;48.784;9.192;2023-04-29T20:06:39;98801.06;;;12.86;84.39
41140;BME280;26881;48.784;9.192;2023-04-29T20:12:01;98811.75;;;12.83;82.66
41140;BME280;26881;48.784;9.192;2023-04-29T20:17:24;98812.69;;;12.82;81.79
41140;BME280;26881;48.784;9.192;2023-04-29T20:22:46;98814.28;;;12.84;83.56
41140;BME280;26881;48.784;9.192;2023-04-29T20:28:08;98816.34;;;12.79;80.61
41140;BME280;26881;48.784;9.192;2023-04-29T20:33:30;98822.47;;;12.80;82.65
41140;BME280;26881;48.784;9.192;2023-04-29T20:38:52;98823.22;;;12.68;82.59
41140;BME280;26881;48.784;9.192;2023-04-29T20:44:14;98822.59;;;12.64;82.18
41140;BME280;26881;48.784;9.192;2023-04-29T20:49:35;98833.38;;;12.59;83.49
41140;BME280;26881;48.784;9.192;2023-04-29T20:54:57;98837.50;;;12.63;81.96
41140;BME280;26881;48.784;9.192;2023-04-29T21:00:19;98834.75;;;12.65;81.96
41140;BME280;26881;48.784;9.192;2023-04-29T21:05:41;98828.59;;;12.66;82.73
41140;BME280;26881;48.784;9.192;2023-04-29T21:11:03;98837.00;;;12.71;80.64
41140;BME280;26881;48.784;9.192;2023-04-29T21:16:28;98828.75;;;12.63;82.04
41140;BME280;26881;48.784;9.192;2023-04-29T21:21:49;98835.81;;;12.62;82.52
41140;BME280;26881;48.784;9.192;2023-04-29T21:27:11;98831.00;;;12.69;80.35
41140;BME280;26881;48.784;9.192;2023-04-29T21:32:33;98848.34;;;12.72;79.78
41140;BME280;26881;48.784;9.192;2023-04-29T21:37:56;98836.06;;;12.72;80.68
41140;BME280;26881;48.784;9.192;2023-04-29T21:43:18;98834.09;;;12.76;80.31
41140;BME280;26881;48.784;9.192;2023-04-29T21:48:40;98832.59;;;12.72;80.74
41140;BME280;26881;48.784;9.192;2023-04-29T21:54:02;98831.84;;;12.70;81.02
41140;BME280;26881;48.784;9.192;2023-04-29T21:59:28;98837.94;;;12.70;81.44
41140;BME280;26881;48.784;9.192;2023-04-29T22:04:54;98841.50;;;12.69;83.34
41140;BME280;26881;48.784;9.192;2023-04-29T22:10:16;98846.56;;;12.72;83.28
41140;BME280;26881;48.784;9.192;2023-04-29T22:15:38;98850.13;;;12.71;84.24
41140;BME280;26881;48.784;9.192;2023-04-29T22:21:00;98846.56;;;12.72;83.52
41140;BME280;26881;48.784;9.192;2023-04-29T22:26:21;98843.19;;;12.70;84.34
41140;BME280;26881;48.784;9.192;2023-04-29T22:31:45;98844.06;;;12.71;84.29
41140;BME280;26881;48.784;9.192;2023-04-29T22:37:07;98852.00;;;12.69;83.31
41140;BME280;26881;48.784;9.192;2023-04-29T22:42:29;98858.84;;;12.72;82.68
41140;BME280;26881;48.784;9.192;2023-04-29T22:47:51;98855.38;;;12.71;84.59
41140;BME280;26881;48.784;9.192;2023-04-29T22:53:12;98855.59;;;12.68;82.66
41140;BME280;26881;48.784;9.192;2023-04-29T22:58:34;98859.13;;;12.67;83.05
41140;BME280;26881;48.784;9.192;2023-04-29T23:03:56;98856.59;;;12.65;82.79
41140;BME280;26881;48.784;9.192;2023-04-29T23:09:18;98849.69;;;12.64;83.24
41140;BME280;26881;48.784;9.192;2023-04-29T23:14:40;98861.13;;;12.63;82.96
41140;BME280;26881;48.784;9.192;2023-04-29T23:20:01;98842.00;;;12.61;83.10
41140;BME280;26881;48.784;9.192;2023-04-29T23:25:23;98847.53;;;12.57;82.94
41140;BME280;26881;48.784;9.192;2023-04-29T23:30:46;98850.16;;;12.57;82.63
41140;BME280;26881;48.784;9.192;2023-04-29T23:36:08;98856.44;;;12.54;82.33
41140;BME280;26881;48.784;9.192;2023-04-29T23:41:30;98861.78;;;12.53;83.11
41140;BME280;26881;48.784;9.192;2023-04-29T23:46:52;98867.03;;;12.53;82.67
41140;BME280;26881;48.784;9.192;2023-04-29T23:52:14;98872.34;;;12.51;81.38
41140;BME280;26881;48.784;9.192;2023-04-29T23:57:35;98875.09;;;12.50;81.75
